createdAt,value
2023-03-29T00:02:05.369Z,97109.13
2023-03-29T00:04:33.973Z,97105.63
2023-03-29T00:07:04.155Z,97116.47
2023-03-29T00:09:33.166Z,97102.38
2023-03-29T00:12:01.613Z,97097.19
2023-03-29T00:14:30.507Z,97090.97
2023-03-29T00:16:58.717Z,97088.44
2023-03-29T00:19:26.173Z,97089.44
2023-03-29T00:21:53.063Z,97086.06
2023-03-29T00:24:21.242Z,97077.31
2023-03-29T00:26:48.463Z,97081.13
2023-03-29T00:29:15.483Z,97079.59
2023-03-29T00:31:45.742Z,97083.25
2023-03-29T00:34:12.664Z,97072.81
2023-03-29T00:36:40.182Z,97076.63
2023-03-29T00:39:07.298Z,97076.78
2023-03-29T00:41:34.337Z,97077.88
2023-03-29T00:44:04.869Z,97070.28
2023-03-29T00:46:32.315Z,97070.28
2023-03-29T00:49:07.885Z,97076.91
2023-03-29T00:51:38.757Z,97076.22
2023-03-29T00:54:14.446Z,97070.16
2023-03-29T00:56:44.995Z,97049.91
2023-03-29T00:59:18.635Z,97051.84
2023-03-29T01:02:05.225Z,97051.44
2023-03-29T01:04:42.574Z,97051.59
2023-03-29T01:07:30.713Z,97046.66
2023-03-29T01:10:22.459Z,97050.47
2023-03-29T01:12:56.369Z,97053.13
2023-03-29T01:15:27.634Z,97048.63
2023-03-29T01:17:58.046Z,97047.53
2023-03-29T01:20:55.376Z,97042.44
2023-03-29T01:23:32.785Z,97034.28
2023-03-29T01:26:24.843Z,97028.22
2023-03-29T01:28:59.432Z,97017.38
2023-03-29T01:31:40.350Z,97021.16
2023-03-29T01:34:20.543Z,97014.03
2023-03-29T01:37:00.158Z,96988.97
2023-03-29T01:39:27.328Z,96997.97
2023-03-29T01:42:10.424Z,96994.19
2023-03-29T01:45:01.849Z,96992.78
2023-03-29T01:48:09.748Z,96983.19
2023-03-29T01:50:55.946Z,96965.06
2023-03-29T01:54:22.979Z,96978.84
2023-03-29T01:56:51.856Z,96975.88
2023-03-29T01:59:23.212Z,96969.84
2023-03-29T02:01:59.615Z,96970.94
2023-03-29T02:04:39.000Z,96961.09
2023-03-29T02:07:08.604Z,96967.16
2023-03-29T02:09:38.663Z,96971.66
2023-03-29T02:12:09.096Z,96967.31
2023-03-29T02:14:36.356Z,96972.66
2023-03-29T02:17:27.716Z,96967.03
2023-03-29T02:20:17.333Z,96962.66
2023-03-29T02:22:56.941Z,96941.41
2023-03-29T02:25:24.555Z,96937.78
2023-03-29T02:27:52.706Z,96936.22
2023-03-29T02:30:20.955Z,96921.16
2023-03-29T02:33:06.546Z,96913.59
2023-03-29T02:35:39.270Z,96919.78
2023-03-29T02:38:10.388Z,96909.06
2023-03-29T02:40:39.559Z,96901.06
2023-03-29T02:43:09.239Z,96900.22
2023-03-29T02:45:37.761Z,96894.72
2023-03-29T02:48:10.175Z,96883.19
2023-03-29T02:50:43.352Z,96881.34
2023-03-29T02:53:17.102Z,96888.53
2023-03-29T02:55:46.803Z,96885.72
2023-03-29T02:58:15.337Z,96889.22
2023-03-29T03:00:47.213Z,96887.69
2023-03-29T03:03:15.653Z,96897.25
2023-03-29T03:05:44.665Z,96898.13
2023-03-29T03:08:11.706Z,96899.06
2023-03-29T03:10:39.192Z,96897.25
2023-03-29T03:13:06.030Z,96894.44
2023-03-29T03:15:35.724Z,96905.13
2023-03-29T03:18:03.923Z,96907.66
2023-03-29T03:20:32.396Z,96908.38
2023-03-29T03:22:59.273Z,96899.38
2023-03-29T03:25:26.475Z,96902.72
2023-03-29T03:27:54.196Z,96899.94
2023-03-29T03:30:23.783Z,96901.44
2023-03-29T03:32:56.412Z,96902.28
2023-03-29T03:35:52.630Z,96896.66
2023-03-29T03:38:19.538Z,96898.50
2023-03-29T03:40:58.674Z,96896.66
2023-03-29T03:43:26.957Z,96891.88
2023-03-29T03:45:55.547Z,96897.78
2023-03-29T03:48:25.179Z,96895.78
2023-03-29T03:51:31.189Z,96891.84
2023-03-29T03:53:58.414Z,96904.09
2023-03-29T03:56:48.533Z,96895.78
2023-03-29T03:59:38.886Z,96906.63
2023-03-29T04:02:10.279Z,96905.66
2023-03-29T04:04:39.340Z,96905.50
2023-03-29T04:07:12.991Z,96909.72
2023-03-29T04:09:58.290Z,96906.06
2023-03-29T04:12:43.496Z,96899.88
2023-03-29T04:15:10.605Z,96903.38
2023-03-29T04:17:40.667Z,96898.72
2023-03-29T04:20:28.161Z,96890.69
2023-03-29T04:22:55.126Z,96893.25
2023-03-29T04:25:23.199Z,96900.28
2023-03-29T04:28:11.632Z,96898.59
2023-03-29T04:30:49.527Z,96901.94
2023-03-29T04:33:42.538Z,96900.13
2023-03-29T04:36:10.036Z,96906.31
2023-03-29T04:38:37.831Z,96898.16
2023-03-29T04:41:05.188Z,96897.88
2023-03-29T04:44:03.421Z,96898.56
2023-03-29T04:46:32.303Z,96892.09
2023-03-29T04:49:02.745Z,96896.28
2023-03-29T04:51:34.910Z,96899.50
2023-03-29T04:54:02.349Z,96905.41
2023-03-29T04:56:30.843Z,96901.63
2023-03-29T04:59:30.538Z,96905.69
2023-03-29T05:01:57.569Z,96903.69
2023-03-29T05:04:24.667Z,96901.72
2023-03-29T05:07:04.455Z,96909.44
2023-03-29T05:09:32.542Z,96910.84
2023-03-29T05:12:02.580Z,96915.06
2023-03-29T05:14:36.493Z,96917.28
2023-03-29T05:17:06.331Z,96916.16
2023-03-29T05:19:36.081Z,96917.69
2023-03-29T05:22:02.930Z,96918.25
2023-03-29T05:24:29.831Z,96931.19
2023-03-29T05:27:04.806Z,96927.38
2023-03-29T05:29:36.616Z,96922.56
2023-03-29T05:32:23.030Z,96922.25
2023-03-29T05:34:50.327Z,96915.75
2023-03-29T05:37:17.806Z,96911.97
2023-03-29T05:39:53.351Z,96919.69
2023-03-29T05:42:33.229Z,96921.97
2023-03-29T05:45:08.262Z,96916.72
2023-03-29T05:47:35.922Z,96920.94
2023-03-29T05:50:03.784Z,96917.09
2023-03-29T05:52:31.446Z,96923.84
2023-03-29T05:54:58.335Z,96920.19
2023-03-29T05:57:26.491Z,96915.50
2023-03-29T05:59:53.301Z,96928.63
2023-03-29T06:02:20.161Z,96922.28
2023-03-29T06:04:51.780Z,96926.63
2023-03-29T06:07:24.800Z,96930.69
2023-03-29T06:10:15.751Z,96926.63
2023-03-29T06:12:47.576Z,96928.28
2023-03-29T06:15:14.954Z,96917.41
2023-03-29T06:17:47.083Z,96934.84
2023-03-29T06:20:14.918Z,96936.25
2023-03-29T06:22:47.888Z,96936.94
2023-03-29T06:25:15.421Z,96943.81
2023-03-29T06:27:46.664Z,96937.50
2023-03-29T06:30:16.859Z,96941.00
2023-03-29T06:32:49.772Z,96940.69
2023-03-29T06:35:36.949Z,96947.75
2023-03-29T06:38:08.030Z,96949.13
2023-03-29T06:41:11.075Z,96938.09
2023-03-29T06:43:54.861Z,96946.38
2023-03-29T06:46:24.617Z,96952.97
2023-03-29T06:48:56.573Z,96943.59
2023-03-29T06:51:31.943Z,96945.69
2023-03-29T06:53:59.002Z,96943.38
2023-03-29T06:56:26.146Z,96948.16
2023-03-29T06:58:59.573Z,96945.00
2023-03-29T07:01:42.945Z,96943.53
2023-03-29T07:04:17.586Z,96946.28
2023-03-29T07:07:07.531Z,96944.81
2023-03-29T07:09:36.083Z,96950.41
2023-03-29T07:12:23.355Z,96956.00
2023-03-29T07:14:51.052Z,96946.47
2023-03-29T07:17:18.491Z,96956.44
2023-03-29T07:19:45.685Z,96963.84
2023-03-29T07:22:48.126Z,96965.06
2023-03-29T07:25:15.709Z,96970.00
2023-03-29T07:27:42.862Z,96975.56
2023-03-29T07:30:13.944Z,96982.16
2023-03-29T07:32:44.260Z,96974.47
2023-03-29T07:35:28.624Z,96981.03
2023-03-29T07:37:56.225Z,96978.69
2023-03-29T07:40:26.029Z,96971.88
2023-03-29T07:42:59.169Z,96978.59
2023-03-29T07:45:30.839Z,96978.78
2023-03-29T07:48:05.354Z,96980.84
2023-03-29T07:50:46.673Z,96974.81
2023-03-29T07:53:15.801Z,96982.38
2023-03-29T07:55:47.336Z,96980.91
2023-03-29T07:58:33.292Z,96976.06
2023-03-29T08:01:00.583Z,96980.13
2023-03-29T08:03:48.001Z,96978.63
2023-03-29T08:06:16.113Z,96973.59
2023-03-29T08:08:43.096Z,96975.78
2023-03-29T08:11:13.966Z,96974.44
2023-03-29T08:13:54.640Z,96977.66
2023-03-29T08:16:27.247Z,96974.66
2023-03-29T08:19:04.436Z,96971.63
2023-03-29T08:21:48.752Z,96972.81
2023-03-29T08:24:18.573Z,96966.28
2023-03-29T08:26:50.302Z,96969.63
2023-03-29T08:29:20.232Z,96969.28
2023-03-29T08:31:47.069Z,96970.81
2023-03-29T08:34:14.414Z,96966.78
2023-03-29T08:37:09.747Z,96970.72
2023-03-29T08:39:41.316Z,96972.72
2023-03-29T08:43:03.264Z,96967.19
2023-03-29T08:46:02.949Z,96967.03
2023-03-29T08:48:42.340Z,96967.88
2023-03-29T08:51:22.852Z,96962.66
2023-03-29T08:53:54.342Z,96971.41
2023-03-29T08:56:36.769Z,96965.69
2023-03-29T08:59:23.720Z,96964.16
2023-03-29T09:01:54.004Z,96965.81
2023-03-29T09:04:28.190Z,96962.47
2023-03-29T09:07:10.014Z,96951.50
2023-03-29T09:09:42.687Z,96954.84
2023-03-29T09:12:47.929Z,96945.75
2023-03-29T09:15:24.804Z,96946.38
2023-03-29T09:18:47.383Z,96951.13
2023-03-29T09:21:35.566Z,96949.88
2023-03-29T09:24:18.254Z,96935.00
2023-03-29T09:27:33.521Z,96939.19
2023-03-29T09:30:26.551Z,96931.38
2023-03-29T09:33:10.942Z,96936.72
2023-03-29T09:35:59.876Z,96939.50
2023-03-29T09:38:31.128Z,96940.78
2023-03-29T09:41:08.929Z,96949.31
2023-03-29T09:43:41.074Z,96938.75
2023-03-29T09:46:28.943Z,96931.09
2023-03-29T09:48:57.356Z,96939.91
2023-03-29T09:51:29.211Z,96939.63
2023-03-29T09:53:57.496Z,96940.50
2023-03-29T09:56:36.112Z,96920.97
2023-03-29T09:59:12.703Z,96922.81
2023-03-29T10:01:45.267Z,96924.69
2023-03-29T10:04:14.064Z,96922.66
2023-03-29T10:06:50.241Z,96922.81
2023-03-29T10:09:23.021Z,96924.03
2023-03-29T10:11:58.484Z,96924.53
2023-03-29T10:14:49.455Z,96920.31
2023-03-29T10:17:22.633Z,96923.63
2023-03-29T10:20:04.360Z,96921.03
2023-03-29T10:22:38.218Z,96915.22
2023-03-29T10:25:13.545Z,96916.19
2023-03-29T10:27:43.649Z,96918.59
2023-03-29T10:30:19.887Z,96911.81
2023-03-29T10:32:47.066Z,96902.16
2023-03-29T10:35:33.237Z,96903.47
2023-03-29T10:38:05.044Z,96912.78
2023-03-29T10:40:34.473Z,96898.06
2023-03-29T10:43:20.052Z,96899.16
2023-03-29T10:45:54.043Z,96901.31
2023-03-29T10:48:29.120Z,96891.78
2023-03-29T10:51:01.262Z,96903.13
2023-03-29T10:53:32.535Z,96887.06
2023-03-29T10:56:20.076Z,96881.41
2023-03-29T10:59:04.892Z,96878.94
2023-03-29T11:02:15.247Z,96869.75
2023-03-29T11:05:01.292Z,96868.91
2023-03-29T11:07:33.102Z,96871.41
2023-03-29T11:10:42.307Z,96873.06
2023-03-29T11:13:50.436Z,96870.34
2023-03-29T11:16:34.759Z,96860.13
2023-03-29T11:19:35.482Z,96870.16
2023-03-29T11:22:21.854Z,96861.19
2023-03-29T11:25:23.740Z,96865.97
2023-03-29T11:28:11.344Z,96873.06
2023-03-29T11:30:57.177Z,96873.28
2023-03-29T11:33:41.603Z,96876.84
2023-03-29T11:36:41.786Z,96871.81
2023-03-29T11:39:28.681Z,96868.47
2023-03-29T11:42:07.691Z,96866.19
2023-03-29T11:44:35.999Z,96864.94
2023-03-29T11:47:14.195Z,96860.97
2023-03-29T11:49:46.754Z,96864.09
2023-03-29T11:52:17.574Z,96871.19
2023-03-29T11:55:16.596Z,96871.13
2023-03-29T11:58:20.104Z,96864.41
2023-03-29T12:00:55.647Z,96870.47
2023-03-29T12:03:41.098Z,96871.69
2023-03-29T12:06:23.927Z,96874.38
2023-03-29T12:09:23.257Z,96869.53
2023-03-29T12:12:15.490Z,96861.19
2023-03-29T12:14:59.832Z,96854.47
2023-03-29T12:17:41.482Z,96904.31
2023-03-29T12:20:28.313Z,96872.97
2023-03-29T12:22:58.364Z,96871.50
2023-03-29T12:25:45.145Z,96876.47
2023-03-29T12:28:49.448Z,96875.56
2023-03-29T12:31:36.623Z,96869.13
2023-03-29T12:34:24.439Z,96872.66
2023-03-29T12:37:11.216Z,96872.66
2023-03-29T12:40:12.282Z,96868.25
2023-03-29T12:43:05.473Z,96861.81
2023-03-29T12:46:23.318Z,96863.44
2023-03-29T12:48:57.118Z,96865.75
2023-03-29T12:51:33.579Z,96857.00
2023-03-29T12:54:17.156Z,96869.28
2023-03-29T12:56:54.934Z,96868.22
2023-03-29T12:59:38.022Z,96883.00
2023-03-29T13:02:14.164Z,96876.97
2023-03-29T13:04:44.131Z,96880.06
2023-03-29T13:07:26.486Z,96879.56
2023-03-29T13:10:05.162Z,96890.00
2023-03-29T13:12:34.889Z,96879.75
2023-03-29T13:15:07.847Z,96873.22
2023-03-29T13:18:19.576Z,96879.41
2023-03-29T13:21:23.866Z,96879.16
2023-03-29T13:24:29.577Z,96871.94
2023-03-29T13:27:22.144Z,96875.44
2023-03-29T13:30:09.854Z,96874.78
2023-03-29T13:33:05.406Z,96876.41
2023-03-29T13:35:59.496Z,96878.63
2023-03-29T13:38:31.360Z,96871.19
2023-03-29T13:41:05.077Z,96873.59
2023-03-29T13:43:44.454Z,96870.25
2023-03-29T13:46:40.996Z,96868.72
2023-03-29T13:49:23.058Z,96867.47
2023-03-29T13:52:16.206Z,96865.63
2023-03-29T13:54:54.883Z,96856.94
2023-03-29T13:57:46.860Z,96851.09
2023-03-29T14:00:28.489Z,96834.56
2023-03-29T14:02:58.743Z,96834.28
2023-03-29T14:05:39.785Z,96840.19
2023-03-29T14:08:22.153Z,96831.13
2023-03-29T14:10:49.712Z,96824.97
2023-03-29T14:13:23.081Z,96820.47
2023-03-29T14:15:54.721Z,96822.84
2023-03-29T14:18:25.495Z,96816.88
2023-03-29T14:20:55.250Z,96805.06
2023-03-29T14:23:26.185Z,96802.41
2023-03-29T14:25:53.127Z,96797.59
2023-03-29T14:28:27.809Z,96802.03
2023-03-29T14:30:55.882Z,96791.38
2023-03-29T14:33:29.893Z,96794.06
2023-03-29T14:36:02.305Z,96794.06
2023-03-29T14:38:30.686Z,96796.56
2023-03-29T14:41:02.031Z,96790.06
2023-03-29T14:43:31.864Z,96798.63
2023-03-29T14:46:02.598Z,96797.34
2023-03-29T14:48:33.043Z,96783.31
2023-03-29T14:51:00.788Z,96784.91
2023-03-29T14:53:31.761Z,96785.31
2023-03-29T14:55:59.342Z,96788.25
2023-03-29T14:58:34.108Z,96766.88
2023-03-29T15:01:07.961Z,96772.69
2023-03-29T15:04:08.867Z,96769.91
2023-03-29T15:06:44.783Z,96758.75
2023-03-29T15:09:38.282Z,96754.13
2023-03-29T15:12:05.407Z,96753.13
2023-03-29T15:14:34.205Z,96756.81
2023-03-29T15:17:06.116Z,96756.78
2023-03-29T15:19:33.456Z,96751.88
2023-03-29T15:22:09.988Z,96747.66
2023-03-29T15:24:47.369Z,96752.38
2023-03-29T15:27:19.533Z,96748.94
2023-03-29T15:29:47.279Z,96742.53
2023-03-29T15:32:31.461Z,96730.38
2023-03-29T15:35:05.941Z,96729.06
2023-03-29T15:37:32.915Z,96730.47
2023-03-29T15:39:59.796Z,96729.50
2023-03-29T15:42:26.715Z,96724.38
2023-03-29T15:44:56.155Z,96729.66
2023-03-29T15:47:23.841Z,96731.63
2023-03-29T15:49:50.704Z,96728.56
2023-03-29T15:52:17.562Z,96723.59
2023-03-29T15:54:44.352Z,96727.84
2023-03-29T15:57:15.520Z,96727.47
2023-03-29T15:59:43.283Z,96735.41
2023-03-29T16:02:16.415Z,96732.00
2023-03-29T16:04:43.663Z,96734.03
2023-03-29T16:07:15.888Z,96730.44
2023-03-29T16:09:44.108Z,96731.34
2023-03-29T16:12:11.254Z,96727.91
2023-03-29T16:14:38.361Z,96721.25
2023-03-29T16:17:05.986Z,96731.78
2023-03-29T16:19:33.988Z,96725.78
2023-03-29T16:22:05.074Z,96717.47
2023-03-29T16:24:34.228Z,96721.06
2023-03-29T16:27:02.531Z,96710.44
2023-03-29T16:29:30.058Z,96716.06
2023-03-29T16:31:57.135Z,96709.41
2023-03-29T16:34:24.709Z,96710.06
2023-03-29T16:36:52.908Z,96714.50
2023-03-29T16:39:19.841Z,96699.88
2023-03-29T16:41:48.747Z,96696.13
2023-03-29T16:44:23.809Z,96692.56
2023-03-29T16:46:54.130Z,96698.00
2023-03-29T16:49:21.359Z,96694.25
2023-03-29T16:51:48.556Z,96697.63
2023-03-29T16:54:17.203Z,96683.22
2023-03-29T16:56:44.150Z,96693.69
2023-03-29T16:59:11.946Z,96697.88
2023-03-29T17:01:40.516Z,96695.81
2023-03-29T17:04:08.180Z,96692.06
2023-03-29T17:06:35.961Z,96691.88
2023-03-29T17:09:04.912Z,96691.47
2023-03-29T17:11:31.760Z,96688.75
2023-03-29T17:13:58.903Z,96681.06
2023-03-29T17:16:26.008Z,96681.66
2023-03-29T17:18:52.906Z,96682.09
2023-03-29T17:21:20.210Z,96665.41
2023-03-29T17:23:47.061Z,96674.78
2023-03-29T17:26:14.126Z,96664.34
2023-03-29T17:28:41.185Z,96676.06
2023-03-29T17:31:08.331Z,96671.88
2023-03-29T17:33:35.986Z,96678.59
2023-03-29T17:36:04.869Z,96680.03
2023-03-29T17:38:34.115Z,96678.53
2023-03-29T17:41:02.578Z,96671.03
2023-03-29T17:43:29.388Z,96667.91
2023-03-29T17:45:56.245Z,96672.31
2023-03-29T17:48:24.307Z,96674.00
2023-03-29T17:50:51.490Z,96668.31
2023-03-29T17:53:18.458Z,96666.47
2023-03-29T17:55:45.761Z,96674.41
2023-03-29T17:58:12.681Z,96667.06
2023-03-29T18:00:39.590Z,96670.19
2023-03-29T18:03:06.960Z,96678.97
2023-03-29T18:05:35.637Z,96680.63
2023-03-29T18:08:02.902Z,96685.63
2023-03-29T18:10:29.735Z,96671.22
2023-03-29T18:12:56.566Z,96675.81
2023-03-29T18:15:23.420Z,96678.28
2023-03-29T18:17:50.248Z,96676.00
2023-03-29T18:20:17.209Z,96670.31
2023-03-29T18:22:44.611Z,96679.91
2023-03-29T18:25:11.447Z,96673.44
2023-03-29T18:27:39.728Z,96674.88
2023-03-29T18:30:08.526Z,96664.00
2023-03-29T18:32:36.200Z,96673.56
2023-03-29T18:35:03.318Z,96676.06
2023-03-29T18:37:30.195Z,96672.09
2023-03-29T18:39:57.079Z,96668.31
2023-03-29T18:42:23.927Z,96663.53
2023-03-29T18:44:51.805Z,96663.31
2023-03-29T18:47:18.585Z,96656.78
2023-03-29T18:49:45.949Z,96658.44
2023-03-29T18:52:12.828Z,96654.47
2023-03-29T18:54:39.615Z,96659.66
2023-03-29T18:57:06.739Z,96669.22
2023-03-29T18:59:36.399Z,96668.78
2023-03-29T19:02:03.810Z,96670.22
2023-03-29T19:04:30.878Z,96669.56
2023-03-29T19:06:59.646Z,96674.53
2023-03-29T19:09:27.337Z,96675.75
2023-03-29T19:11:54.181Z,96677.00
2023-03-29T19:14:24.075Z,96679.91
2023-03-29T19:16:51.776Z,96674.41
2023-03-29T19:19:19.445Z,96681.53
2023-03-29T19:21:50.001Z,96674.66
2023-03-29T19:24:16.909Z,96677.56
2023-03-29T19:26:44.647Z,96678.78
2023-03-29T19:29:11.847Z,96666.28
2023-03-29T19:31:38.967Z,96662.09
2023-03-29T19:34:06.838Z,96661.47
2023-03-29T19:36:33.826Z,96655.41
2023-03-29T19:39:00.861Z,96652.25
2023-03-29T19:41:28.267Z,96649.09
2023-03-29T19:43:55.642Z,96644.13
2023-03-29T19:46:22.951Z,96648.25
2023-03-29T19:48:51.679Z,96630.75
2023-03-29T19:51:19.418Z,96635.88
2023-03-29T19:53:47.143Z,96628.19
2023-03-29T19:56:14.789Z,96628.78
2023-03-29T19:58:41.906Z,96624.78
2023-03-29T20:01:08.716Z,96612.69
2023-03-29T20:03:36.209Z,96615.56
2023-03-29T20:06:03.624Z,96614.94
2023-03-29T20:08:30.428Z,96611.59
2023-03-29T20:10:59.520Z,96609.94
2023-03-29T20:13:37.530Z,96604.50
2023-03-29T20:16:08.787Z,96607.44
2023-03-29T20:18:38.209Z,96598.81
2023-03-29T20:21:07.443Z,96598.66
2023-03-29T20:23:34.762Z,96600.53
2023-03-29T20:26:01.641Z,96597.81
2023-03-29T20:28:29.124Z,96594.50
2023-03-29T20:30:55.934Z,96584.31
2023-03-29T20:33:23.728Z,96590.75
2023-03-29T20:35:50.741Z,96596.16
2023-03-29T20:38:17.609Z,96590.94
2023-03-29T20:40:44.833Z,96583.69
2023-03-29T20:43:13.191Z,96567.63
2023-03-29T20:45:52.733Z,96564.09
2023-03-29T20:48:23.337Z,96568.69
2023-03-29T20:50:51.230Z,96570.53
2023-03-29T20:53:20.032Z,96571.16
2023-03-29T20:55:47.610Z,96563.06
2023-03-29T20:58:15.501Z,96565.75
2023-03-29T21:00:42.320Z,96563.88
2023-03-29T21:03:09.631Z,96560.19
2023-03-29T21:05:36.878Z,96552.06
2023-03-29T21:08:04.152Z,96559.13
2023-03-29T21:10:31.147Z,96543.53
2023-03-29T21:13:02.310Z,96537.94
2023-03-29T21:15:30.577Z,96538.56
2023-03-29T21:17:58.096Z,96534.66
2023-03-29T21:20:25.389Z,96523.44
2023-03-29T21:22:52.228Z,96521.13
2023-03-29T21:25:19.325Z,96518.88
2023-03-29T21:27:46.288Z,96519.31
2023-03-29T21:30:13.461Z,96511.63
2023-03-29T21:32:40.433Z,96510.19
2023-03-29T21:35:08.293Z,96512.31
2023-03-29T21:37:35.248Z,96508.16
2023-03-29T21:40:05.627Z,96498.59
2023-03-29T21:42:34.028Z,96493.84
2023-03-29T21:45:01.015Z,96488.66
2023-03-29T21:47:28.212Z,96490.09
2023-03-29T21:49:55.073Z,96487.81
2023-03-29T21:52:22.314Z,96487.44
2023-03-29T21:54:49.153Z,96487.66
2023-03-29T21:57:16.172Z,96484.31
2023-03-29T21:59:43.163Z,96488.50
2023-03-29T22:02:10.214Z,96488.13
2023-03-29T22:04:37.768Z,96477.75
2023-03-29T22:07:05.843Z,96486.47
2023-03-29T22:09:34.898Z,96481.72
2023-03-29T22:12:03.194Z,96480.44
2023-03-29T22:14:34.844Z,96491.09
2023-03-29T22:17:05.594Z,96490.66
2023-03-29T22:19:39.405Z,96490.28
2023-03-29T22:22:12.993Z,96486.94
2023-03-29T22:24:40.826Z,96501.97
2023-03-29T22:27:08.076Z,96496.97
2023-03-29T22:29:34.878Z,96491.94
2023-03-29T22:32:01.789Z,96487.19
2023-03-29T22:34:29.724Z,96488.66
2023-03-29T22:36:56.571Z,96497.59
2023-03-29T22:39:23.366Z,96494.69
2023-03-29T22:41:50.320Z,96494.69
2023-03-29T22:44:17.145Z,96498.03
2023-03-29T22:46:43.901Z,96504.91
2023-03-29T22:49:11.355Z,96505.31
2023-03-29T22:51:38.122Z,96499.69
2023-03-29T22:54:04.994Z,96500.13
2023-03-29T22:56:31.797Z,96495.34
2023-03-29T22:58:58.662Z,96498.03
2023-03-29T23:01:25.476Z,96490.53
2023-03-29T23:03:52.373Z,96490.53
2023-03-29T23:06:19.338Z,96489.91
2023-03-29T23:08:46.394Z,96485.31
2023-03-29T23:11:13.258Z,96485.31
2023-03-29T23:13:40.090Z,96489.28
2023-03-29T23:16:07.273Z,96489.28
2023-03-29T23:18:37.599Z,96486.78
2023-03-29T23:21:06.076Z,96486.78
2023-03-29T23:23:33.570Z,96486.78
2023-03-29T23:26:01.598Z,96497.41
2023-03-29T23:28:34.236Z,96497.41
2023-03-29T23:31:04.724Z,96490.09
2023-03-29T23:33:35.197Z,96490.97
2023-03-29T23:36:05.338Z,96480.97
2023-03-29T23:38:34.109Z,96476.75
2023-03-29T23:41:03.653Z,96476.78
2023-03-29T23:43:34.867Z,96487.84
2023-03-29T23:46:10.928Z,96477.63
2023-03-29T23:48:38.021Z,96474.91
2023-03-29T23:51:05.619Z,96468.84
2023-03-29T23:53:32.605Z,96469.06
2023-03-29T23:56:01.929Z,96475.72
2023-03-29T23:58:31.477Z,96472.19
